This is the latest recevied weather packets stored in our database for station/object IV3ONZ. If no packets are shown the sender has not sent any weather packets the latest 10 day(s).
| Time | Temp. | Humidity | Pressure | Rain* | Wind** | Luminosity | Snow |
|---|---|---|---|---|---|---|---|
| 1777228504 | 17.78° C | 57% | 1020 hPa | 0 mm | - | 0 W/m² | - |
| 1777227304 | 18.33° C | 56% | 1019.9 hPa | 0 mm | - | 1 W/m² | - |
| 1777226404 | 19.44° C | 54% | 1019.6 hPa | 0 mm | - | 5 W/m² | - |
| 1777222637 | 21.67° C | 48% | 1019.5 hPa | 0 mm | - | 83 W/m² | - |
| 1777222038 | 22.22° C | 49% | 1019.5 hPa | 0 mm | - | 105 W/m² | - |
| 1777220704 | 22.22° C | 48% | 1019.7 hPa | 0 mm | - | 163 W/m² | - |
| 1777219204 | 22.78° C | 42% | 1019.6 hPa | 0 mm | - | 83 W/m² | - |
| 1777218304 | 22.22° C | 43% | 1019.6 hPa | 0 mm | - | 256 W/m² | - |
| 1777217235 | 22.22° C | 46% | 1019.3 hPa | 0 mm | - | 213 W/m² | - |
| 1777216037 | 23.33° C | 44% | 1019.7 hPa | 0 mm | - | 410 W/m² | - |
| 1777215605 | 22.78° C | 46% | 1019.7 hPa | 0 mm | - | 432 W/m² | - |
| 1777215433 | 22.78° C | 46% | 1019.6 hPa | 0 mm | - | 440 W/m² | - |
| 1777214704 | 23.33° C | 45% | 1019.7 hPa | 0 mm | - | 484 W/m² | - |
| 1777213204 | 23.33° C | 45% | 1019.5 hPa | 0 mm | - | 370 W/m² | - |
| 1777209904 | 25° C | 39% | 1019.6 hPa | 0 mm | - | 714 W/m² | - |
| 1777209004 | 25° C | 38% | 1019.5 hPa | 0 mm | - | 744 W/m² | - |
| 1777207204 | 25° C | 37% | 1019.5 hPa | 0 mm | - | 804 W/m² | - |
| 1777206304 | 24.44° C | 39% | 1019.9 hPa | 0 mm | - | 827 W/m² | - |
| 1777203004 | 25.56° C | 39% | 1019.9 hPa | 0 mm | - | 879 W/m² | - |
| 1777202404 | 25.56° C | 37% | 1019.7 hPa | 0 mm | - | 877 W/m² | - |
| 1777199837 | 23.89° C | 38% | 1020.1 hPa | 0 mm | - | 884 W/m² | - |
| 1777197003 | 23.33° C | 37% | 1020.1 hPa | 0 mm | - | 840 W/m² | - |
| 1777196104 | 23.33° C | 36% | 1020.1 hPa | 0 mm | - | 820 W/m² | - |
| 1777195504 | 23.89° C | 36% | 1020.1 hPa | 0 mm | - | 801 W/m² | - |
| 1777195204 | 22.78° C | 38% | 1020.1 hPa | 0 mm | - | 790 W/m² | - |
* Rain latest hour (hover to see other rain measurements)
** Current wind speed in m/s (hover to see current wind gust speed)